sensor_id;sensor_type;location;lat;lon;timestamp;P1;durP1;ratioP1;P2;durP2;ratioP2
46339;SDS011;47273;49.274;8.708;2022-12-16T04:32:37;12.02;;;6.18;;
46339;SDS011;47273;49.274;8.708;2022-12-16T04:35:22;14.40;;;7.13;;
46339;SDS011;47273;49.274;8.708;2022-12-16T04:38:06;24.92;;;7.88;;
46339;SDS011;47273;49.274;8.708;2022-12-16T04:40:50;20.13;;;7.40;;
46339;SDS011;47273;49.274;8.708;2022-12-16T04:43:34;21.88;;;8.40;;
46339;SDS011;47273;49.274;8.708;2022-12-16T04:46:18;19.05;;;7.80;;
46339;SDS011;47273;49.274;8.708;2022-12-16T04:49:02;16.13;;;6.72;;
46339;SDS011;47273;49.274;8.708;2022-12-16T04:51:46;16.23;;;6.95;;
46339;SDS011;47273;49.274;8.708;2022-12-16T04:54:30;17.95;;;8.52;;
46339;SDS011;47273;49.274;8.708;2022-12-16T04:57:14;24.90;;;8.93;;
46339;SDS011;47273;49.274;8.708;2022-12-16T04:59:58;28.05;;;8.15;;
46339;SDS011;47273;49.274;8.708;2022-12-16T05:02:42;24.52;;;8.80;;
46339;SDS011;47273;49.274;8.708;2022-12-16T05:05:46;20.10;;;9.05;;
46339;SDS011;47273;49.274;8.708;2022-12-16T05:08:31;21.05;;;6.82;;
46339;SDS011;47273;49.274;8.708;2022-12-16T05:11:15;13.25;;;7.00;;
46339;SDS011;47273;49.274;8.708;2022-12-16T05:13:59;15.30;;;7.78;;
46339;SDS011;47273;49.274;8.708;2022-12-16T05:16:43;20.05;;;9.20;;
46339;SDS011;47273;49.274;8.708;2022-12-16T05:19:27;15.00;;;7.78;;
46339;SDS011;47273;49.274;8.708;2022-12-16T05:22:11;15.43;;;7.15;;
46339;SDS011;47273;49.274;8.708;2022-12-16T05:24:56;24.55;;;8.52;;
46339;SDS011;47273;49.274;8.708;2022-12-16T05:27:40;22.25;;;8.15;;
46339;SDS011;47273;49.274;8.708;2022-12-16T05:30:24;23.00;;;8.65;;
46339;SDS011;47273;49.274;8.708;2022-12-16T05:33:08;12.68;;;5.97;;
46339;SDS011;47273;49.274;8.708;2022-12-16T05:35:52;18.98;;;7.97;;
46339;SDS011;47273;49.274;8.708;2022-12-16T05:38:36;24.77;;;9.50;;
46339;SDS011;47273;49.274;8.708;2022-12-16T05:41:20;15.10;;;6.80;;
46339;SDS011;47273;49.274;8.708;2022-12-16T05:44:04;16.05;;;7.28;;
46339;SDS011;47273;49.274;8.708;2022-12-16T05:46:49;16.67;;;7.85;;
46339;SDS011;47273;49.274;8.708;2022-12-16T05:49:33;12.25;;;6.78;;
46339;SDS011;47273;49.274;8.708;2022-12-16T05:52:17;23.40;;;7.55;;
46339;SDS011;47273;49.274;8.708;2022-12-16T05:55:02;28.65;;;11.38;;
46339;SDS011;47273;49.274;8.708;2022-12-16T05:57:49;19.13;;;7.80;;
46339;SDS011;47273;49.274;8.708;2022-12-16T06:00:34;15.23;;;8.65;;
46339;SDS011;47273;49.274;8.708;2022-12-16T06:03:18;21.20;;;6.50;;
46339;SDS011;47273;49.274;8.708;2022-12-16T06:06:02;16.92;;;5.60;;
46339;SDS011;47273;49.274;8.708;2022-12-16T06:08:47;16.17;;;8.70;;
46339;SDS011;47273;49.274;8.708;2022-12-16T06:11:41;26.48;;;8.35;;
46339;SDS011;47273;49.274;8.708;2022-12-16T06:14:25;14.38;;;5.82;;
46339;SDS011;47273;49.274;8.708;2022-12-16T06:17:09;14.15;;;6.25;;
46339;SDS011;47273;49.274;8.708;2022-12-16T06:19:54;18.98;;;6.32;;
46339;SDS011;47273;49.274;8.708;2022-12-16T06:22:38;22.80;;;7.25;;
46339;SDS011;47273;49.274;8.708;2022-12-16T06:25:22;13.85;;;6.35;;
46339;SDS011;47273;49.274;8.708;2022-12-16T06:28:06;17.25;;;7.07;;
46339;SDS011;47273;49.274;8.708;2022-12-16T06:30:50;18.20;;;6.57;;
46339;SDS011;47273;49.274;8.708;2022-12-16T06:33:34;17.90;;;6.93;;
46339;SDS011;47273;49.274;8.708;2022-12-16T06:36:18;24.77;;;8.10;;
46339;SDS011;47273;49.274;8.708;2022-12-16T06:39:02;18.63;;;9.95;;
46339;SDS011;47273;49.274;8.708;2022-12-16T06:41:46;20.17;;;8.68;;
46339;SDS011;47273;49.274;8.708;2022-12-16T06:44:30;22.08;;;8.65;;
46339;SDS011;47273;49.274;8.708;2022-12-16T06:47:14;16.17;;;6.85;;
46339;SDS011;47273;49.274;8.708;2022-12-16T06:49:59;20.27;;;6.97;;
46339;SDS011;47273;49.274;8.708;2022-12-16T06:52:43;11.18;;;6.25;;
46339;SDS011;47273;49.274;8.708;2022-12-16T06:55:27;19.38;;;8.65;;
46339;SDS011;47273;49.274;8.708;2022-12-16T06:58:11;19.77;;;7.70;;
46339;SDS011;47273;49.274;8.708;2022-12-16T07:00:56;13.77;;;6.38;;
46339;SDS011;47273;49.274;8.708;2022-12-16T07:03:40;18.55;;;7.35;;
46339;SDS011;47273;49.274;8.708;2022-12-16T07:06:24;19.40;;;6.60;;
46339;SDS011;47273;49.274;8.708;2022-12-16T07:09:08;13.13;;;8.95;;
46339;SDS011;47273;49.274;8.708;2022-12-16T07:11:52;20.02;;;8.10;;
46339;SDS011;47273;49.274;8.708;2022-12-16T07:14:36;19.98;;;8.05;;
46339;SDS011;47273;49.274;8.708;2022-12-16T07:17:20;18.58;;;8.63;;
46339;SDS011;47273;49.274;8.708;2022-12-16T07:20:04;24.65;;;7.25;;
46339;SDS011;47273;49.274;8.708;2022-12-16T07:22:49;14.82;;;9.40;;
46339;SDS011;47273;49.274;8.708;2022-12-16T07:25:33;26.05;;;9.63;;
46339;SDS011;47273;49.274;8.708;2022-12-16T07:28:17;19.55;;;9.50;;
46339;SDS011;47273;49.274;8.708;2022-12-16T07:31:02;18.63;;;8.98;;
46339;SDS011;47273;49.274;8.708;2022-12-16T07:33:46;19.38;;;8.63;;
46339;SDS011;47273;49.274;8.708;2022-12-16T07:36:30;20.80;;;8.30;;
46339;SDS011;47273;49.274;8.708;2022-12-16T07:39:14;14.43;;;7.57;;
46339;SDS011;47273;49.274;8.708;2022-12-16T07:41:58;16.40;;;6.93;;
46339;SDS011;47273;49.274;8.708;2022-12-16T07:44:42;10.20;;;6.15;;
46339;SDS011;47273;49.274;8.708;2022-12-16T07:47:26;13.85;;;6.00;;
46339;SDS011;47273;49.274;8.708;2022-12-16T07:50:10;19.52;;;9.98;;
46339;SDS011;47273;49.274;8.708;2022-12-16T07:52:58;15.82;;;5.88;;
46339;SDS011;47273;49.274;8.708;2022-12-16T07:55:43;25.30;;;8.75;;
46339;SDS011;47273;49.274;8.708;2022-12-16T07:58:28;13.88;;;8.43;;
46339;SDS011;47273;49.274;8.708;2022-12-16T08:01:13;21.17;;;7.18;;
46339;SDS011;47273;49.274;8.708;2022-12-16T08:03:58;14.80;;;8.30;;
46339;SDS011;47273;49.274;8.708;2022-12-16T08:06:42;18.05;;;8.05;;
46339;SDS011;47273;49.274;8.708;2022-12-16T08:09:26;13.18;;;6.10;;
46339;SDS011;47273;49.274;8.708;2022-12-16T08:12:10;17.98;;;7.80;;
46339;SDS011;47273;49.274;8.708;2022-12-16T08:14:54;22.80;;;8.43;;
46339;SDS011;47273;49.274;8.708;2022-12-16T08:17:41;19.70;;;6.25;;
46339;SDS011;47273;49.274;8.708;2022-12-16T08:20:31;18.10;;;7.65;;
46339;SDS011;47273;49.274;8.708;2022-12-16T08:23:16;14.98;;;8.20;;
46339;SDS011;47273;49.274;8.708;2022-12-16T08:26:00;11.48;;;6.82;;
46339;SDS011;47273;49.274;8.708;2022-12-16T08:28:44;15.65;;;7.90;;
46339;SDS011;47273;49.274;8.708;2022-12-16T08:31:29;32.30;;;10.82;;
46339;SDS011;47273;49.274;8.708;2022-12-16T08:34:13;22.92;;;8.27;;
46339;SDS011;47273;49.274;8.708;2022-12-16T08:36:57;13.50;;;7.15;;
46339;SDS011;47273;49.274;8.708;2022-12-16T08:39:45;24.85;;;8.48;;
46339;SDS011;47273;49.274;8.708;2022-12-16T08:42:29;19.98;;;8.68;;
46339;SDS011;47273;49.274;8.708;2022-12-16T08:45:14;17.73;;;8.07;;
46339;SDS011;47273;49.274;8.708;2022-12-16T08:47:58;21.70;;;8.20;;
46339;SDS011;47273;49.274;8.708;2022-12-16T08:50:42;14.90;;;7.57;;
46339;SDS011;47273;49.274;8.708;2022-12-16T08:53:26;18.20;;;7.38;;
46339;SDS011;47273;49.274;8.708;2022-12-16T08:56:10;22.33;;;8.82;;
46339;SDS011;47273;49.274;8.708;2022-12-16T08:58:54;16.67;;;7.22;;
46339;SDS011;47273;49.274;8.708;2022-12-16T09:01:38;22.88;;;8.55;;
46339;SDS011;47273;49.274;8.708;2022-12-16T09:04:22;23.02;;;9.07;;
46339;SDS011;47273;49.274;8.708;2022-12-16T09:07:06;23.88;;;8.20;;
46339;SDS011;47273;49.274;8.708;2022-12-16T09:09:50;19.65;;;8.50;;
46339;SDS011;47273;49.274;8.708;2022-12-16T09:12:34;20.95;;;7.90;;
46339;SDS011;47273;49.274;8.708;2022-12-16T09:15:18;27.73;;;11.05;;
46339;SDS011;47273;49.274;8.708;2022-12-16T09:18:02;25.08;;;8.68;;
46339;SDS011;47273;49.274;8.708;2022-12-16T09:20:46;22.83;;;8.27;;
46339;SDS011;47273;49.274;8.708;2022-12-16T09:23:30;16.95;;;7.90;;
46339;SDS011;47273;49.274;8.708;2022-12-16T09:26:14;23.20;;;8.88;;
46339;SDS011;47273;49.274;8.708;2022-12-16T09:28:58;17.65;;;8.38;;
46339;SDS011;47273;49.274;8.708;2022-12-16T09:31:42;20.08;;;8.50;;
46339;SDS011;47273;49.274;8.708;2022-12-16T09:34:26;20.35;;;8.18;;
46339;SDS011;47273;49.274;8.708;2022-12-16T09:37:10;16.85;;;7.82;;
46339;SDS011;47273;49.274;8.708;2022-12-16T09:39:54;22.88;;;9.10;;
46339;SDS011;47273;49.274;8.708;2022-12-16T09:43:00;15.23;;;6.68;;
46339;SDS011;47273;49.274;8.708;2022-12-16T09:46:06;18.92;;;8.80;;
46339;SDS011;47273;49.274;8.708;2022-12-16T09:52:01;20.23;;;9.80;;
46339;SDS011;47273;49.274;8.708;2022-12-16T09:54:54;25.45;;;8.32;;
46339;SDS011;47273;49.274;8.708;2022-12-16T09:57:39;19.33;;;8.38;;
46339;SDS011;47273;49.274;8.708;2022-12-16T10:00:26;24.85;;;9.30;;
46339;SDS011;47273;49.274;8.708;2022-12-16T10:09:23;23.52;;;8.73;;
46339;SDS011;47273;49.274;8.708;2022-12-16T10:15:44;20.05;;;8.43;;
46339;SDS011;47273;49.274;8.708;2022-12-16T10:19:04;23.45;;;9.82;;
46339;SDS011;47273;49.274;8.708;2022-12-16T10:22:08;19.75;;;8.73;;
46339;SDS011;47273;49.274;8.708;2022-12-16T10:25:31;23.88;;;9.55;;
46339;SDS011;47273;49.274;8.708;2022-12-16T10:31:28;17.92;;;7.90;;
46339;SDS011;47273;49.274;8.708;2022-12-16T10:34:14;13.40;;;8.18;;
46339;SDS011;47273;49.274;8.708;2022-12-16T10:37:01;25.58;;;9.15;;
46339;SDS011;47273;49.274;8.708;2022-12-16T10:39:54;21.05;;;9.93;;
46339;SDS011;47273;49.274;8.708;2022-12-16T10:42:43;34.38;;;10.90;;
46339;SDS011;47273;49.274;8.708;2022-12-16T10:45:40;22.50;;;8.63;;
46339;SDS011;47273;49.274;8.708;2022-12-16T10:48:29;19.73;;;8.32;;
46339;SDS011;47273;49.274;8.708;2022-12-16T10:51:16;20.88;;;9.68;;
46339;SDS011;47273;49.274;8.708;2022-12-16T11:00:12;27.05;;;10.77;;
46339;SDS011;47273;49.274;8.708;2022-12-16T11:03:20;21.38;;;9.15;;
46339;SDS011;47273;49.274;8.708;2022-12-16T11:06:06;24.15;;;9.75;;
46339;SDS011;47273;49.274;8.708;2022-12-16T11:08:52;27.80;;;9.73;;
46339;SDS011;47273;49.274;8.708;2022-12-16T11:11:36;27.25;;;10.70;;
46339;SDS011;47273;49.274;8.708;2022-12-16T11:14:24;20.00;;;9.77;;
46339;SDS011;47273;49.274;8.708;2022-12-16T11:17:11;21.55;;;8.75;;
46339;SDS011;47273;49.274;8.708;2022-12-16T11:23:19;22.02;;;8.38;;
46339;SDS011;47273;49.274;8.708;2022-12-16T11:26:17;25.00;;;9.32;;
46339;SDS011;47273;49.274;8.708;2022-12-16T11:29:14;18.98;;;8.95;;
46339;SDS011;47273;49.274;8.708;2022-12-16T11:32:20;20.35;;;10.25;;
46339;SDS011;47273;49.274;8.708;2022-12-16T11:41:17;33.55;;;9.30;;
46339;SDS011;47273;49.274;8.708;2022-12-16T11:44:19;20.40;;;8.90;;
46339;SDS011;47273;49.274;8.708;2022-12-16T11:47:10;23.42;;;10.43;;
46339;SDS011;47273;49.274;8.708;2022-12-16T11:50:08;17.33;;;9.55;;
46339;SDS011;47273;49.274;8.708;2022-12-16T11:52:57;31.58;;;10.60;;
46339;SDS011;47273;49.274;8.708;2022-12-16T11:55:44;24.38;;;9.52;;
46339;SDS011;47273;49.274;8.708;2022-12-16T12:01:52;22.15;;;9.85;;
46339;SDS011;47273;49.274;8.708;2022-12-16T12:04:40;18.63;;;8.55;;
46339;SDS011;47273;49.274;8.708;2022-12-16T12:19:18;19.92;;;9.63;;
46339;SDS011;47273;49.274;8.708;2022-12-16T12:22:11;25.13;;;9.43;;
46339;SDS011;47273;49.274;8.708;2022-12-16T12:32:05;19.52;;;8.30;;
46339;SDS011;47273;49.274;8.708;2022-12-16T12:37:24;24.33;;;9.32;;
46339;SDS011;47273;49.274;8.708;2022-12-16T12:40:15;18.92;;;8.02;;
46339;SDS011;47273;49.274;8.708;2022-12-16T12:43:03;18.15;;;8.30;;
46339;SDS011;47273;49.274;8.708;2022-12-16T12:46:36;17.73;;;7.72;;
46339;SDS011;47273;49.274;8.708;2022-12-16T12:53:12;20.90;;;9.15;;
46339;SDS011;47273;49.274;8.708;2022-12-16T12:56:05;22.23;;;9.00;;
46339;SDS011;47273;49.274;8.708;2022-12-16T12:59:16;19.08;;;9.77;;
46339;SDS011;47273;49.274;8.708;2022-12-16T13:02:30;19.52;;;7.80;;
46339;SDS011;47273;49.274;8.708;2022-12-16T13:05:27;19.20;;;8.52;;
46339;SDS011;47273;49.274;8.708;2022-12-16T13:08:29;19.73;;;8.30;;
46339;SDS011;47273;49.274;8.708;2022-12-16T13:11:13;17.92;;;9.20;;
46339;SDS011;47273;49.274;8.708;2022-12-16T13:13:58;23.25;;;8.88;;
46339;SDS011;47273;49.274;8.708;2022-12-16T13:22:29;23.13;;;9.52;;
46339;SDS011;47273;49.274;8.708;2022-12-16T13:31:15;17.75;;;8.90;;
46339;SDS011;47273;49.274;8.708;2022-12-16T13:34:02;29.05;;;9.73;;
46339;SDS011;47273;49.274;8.708;2022-12-16T13:36:53;19.75;;;8.30;;
46339;SDS011;47273;49.274;8.708;2022-12-16T13:39:39;26.73;;;8.95;;
46339;SDS011;47273;49.274;8.708;2022-12-16T13:48:46;16.65;;;8.15;;
46339;SDS011;47273;49.274;8.708;2022-12-16T13:57:27;20.97;;;10.33;;
46339;SDS011;47273;49.274;8.708;2022-12-16T14:00:18;20.38;;;8.43;;
46339;SDS011;47273;49.274;8.708;2022-12-16T14:03:32;21.05;;;9.82;;
46339;SDS011;47273;49.274;8.708;2022-12-16T14:06:30;16.27;;;8.50;;
46339;SDS011;47273;49.274;8.708;2022-12-16T14:18:54;22.13;;;9.00;;
46339;SDS011;47273;49.274;8.708;2022-12-16T14:21:50;31.80;;;9.63;;
46339;SDS011;47273;49.274;8.708;2022-12-16T14:24:39;16.15;;;7.38;;
46339;SDS011;47273;49.274;8.708;2022-12-16T14:27:23;20.27;;;7.80;;
46339;SDS011;47273;49.274;8.708;2022-12-16T14:30:26;22.25;;;8.27;;
46339;SDS011;47273;49.274;8.708;2022-12-16T14:33:24;21.65;;;8.55;;
46339;SDS011;47273;49.274;8.708;2022-12-16T14:36:17;21.05;;;8.95;;
46339;SDS011;47273;49.274;8.708;2022-12-16T14:39:19;16.70;;;7.45;;
46339;SDS011;47273;49.274;8.708;2022-12-16T14:45:33;19.63;;;9.25;;
46339;SDS011;47273;49.274;8.708;2022-12-16T14:48:30;17.02;;;7.82;;
46339;SDS011;47273;49.274;8.708;2022-12-16T14:54:15;20.13;;;8.15;;
46339;SDS011;47273;49.274;8.708;2022-12-16T14:57:59;20.27;;;8.38;;
46339;SDS011;47273;49.274;8.708;2022-12-16T15:00:19;19.55;;;7.03;;
46339;SDS011;47273;49.274;8.708;2022-12-16T15:06:10;19.98;;;8.95;;
46339;SDS011;47273;49.274;8.708;2022-12-16T15:09:20;19.23;;;8.00;;
46339;SDS011;47273;49.274;8.708;2022-12-16T15:12:08;23.30;;;9.43;;
46339;SDS011;47273;49.274;8.708;2022-12-16T15:14:54;18.95;;;8.13;;
46339;SDS011;47273;49.274;8.708;2022-12-16T15:17:44;24.25;;;9.77;;
46339;SDS011;47273;49.274;8.708;2022-12-16T15:20:36;20.50;;;9.40;;
46339;SDS011;47273;49.274;8.708;2022-12-16T15:23:32;15.85;;;7.57;;
46339;SDS011;47273;49.274;8.708;2022-12-16T15:29:03;16.75;;;7.88;;
46339;SDS011;47273;49.274;8.708;2022-12-16T15:31:47;18.20;;;7.33;;
46339;SDS011;47273;49.274;8.708;2022-12-16T15:34:47;20.85;;;9.00;;
46339;SDS011;47273;49.274;8.708;2022-12-16T15:37:36;24.05;;;8.52;;
46339;SDS011;47273;49.274;8.708;2022-12-16T15:43:19;23.80;;;9.30;;
46339;SDS011;47273;49.274;8.708;2022-12-16T15:46:23;25.27;;;8.75;;
46339;SDS011;47273;49.274;8.708;2022-12-16T15:52:38;27.48;;;9.50;;
46339;SDS011;47273;49.274;8.708;2022-12-16T15:58:31;19.02;;;9.50;;
46339;SDS011;47273;49.274;8.708;2022-12-16T16:01:24;22.95;;;9.50;;
46339;SDS011;47273;49.274;8.708;2022-12-16T16:04:44;17.98;;;8.95;;
46339;SDS011;47273;49.274;8.708;2022-12-16T16:07:22;25.90;;;9.02;;
46339;SDS011;47273;49.274;8.708;2022-12-16T16:10:17;16.08;;;7.78;;
46339;SDS011;47273;49.274;8.708;2022-12-16T16:13:03;18.10;;;10.35;;
46339;SDS011;47273;49.274;8.708;2022-12-16T16:15:47;21.52;;;9.00;;
46339;SDS011;47273;49.274;8.708;2022-12-16T16:18:32;24.65;;;9.25;;
46339;SDS011;47273;49.274;8.708;2022-12-16T16:21:16;17.92;;;9.45;;
46339;SDS011;47273;49.274;8.708;2022-12-16T16:24:00;19.23;;;8.85;;
46339;SDS011;47273;49.274;8.708;2022-12-16T16:26:44;17.25;;;8.77;;
46339;SDS011;47273;49.274;8.708;2022-12-16T16:29:28;19.75;;;8.95;;
46339;SDS011;47273;49.274;8.708;2022-12-16T16:32:13;20.75;;;9.00;;
46339;SDS011;47273;49.274;8.708;2022-12-16T16:34:57;20.10;;;9.65;;
46339;SDS011;47273;49.274;8.708;2022-12-16T16:37:41;20.60;;;8.38;;
46339;SDS011;47273;49.274;8.708;2022-12-16T16:40:33;20.75;;;8.93;;
46339;SDS011;47273;49.274;8.708;2022-12-16T16:43:18;16.50;;;8.07;;
46339;SDS011;47273;49.274;8.708;2022-12-16T16:46:06;19.75;;;8.23;;
46339;SDS011;47273;49.274;8.708;2022-12-16T16:48:58;21.85;;;8.50;;
46339;SDS011;47273;49.274;8.708;2022-12-16T16:51:42;16.95;;;8.07;;
46339;SDS011;47273;49.274;8.708;2022-12-16T16:54:26;23.52;;;8.52;;
46339;SDS011;47273;49.274;8.708;2022-12-16T16:57:10;19.25;;;8.77;;
46339;SDS011;47273;49.274;8.708;2022-12-16T16:59:54;23.70;;;10.30;;
46339;SDS011;47273;49.274;8.708;2022-12-16T17:02:38;20.92;;;8.80;;
46339;SDS011;47273;49.274;8.708;2022-12-16T17:05:22;24.58;;;11.43;;
46339;SDS011;47273;49.274;8.708;2022-12-16T17:08:06;17.83;;;8.50;;
46339;SDS011;47273;49.274;8.708;2022-12-16T17:10:50;17.27;;;7.88;;
46339;SDS011;47273;49.274;8.708;2022-12-16T17:13:34;18.05;;;9.70;;
46339;SDS011;47273;49.274;8.708;2022-12-16T17:16:19;24.98;;;9.15;;
46339;SDS011;47273;49.274;8.708;2022-12-16T17:19:08;19.70;;;8.20;;
46339;SDS011;47273;49.274;8.708;2022-12-16T17:21:53;18.48;;;9.32;;
46339;SDS011;47273;49.274;8.708;2022-12-16T17:24:37;23.15;;;9.02;;
46339;SDS011;47273;49.274;8.708;2022-12-16T17:27:23;24.05;;;9.20;;
46339;SDS011;47273;49.274;8.708;2022-12-16T17:30:13;19.40;;;9.15;;
46339;SDS011;47273;49.274;8.708;2022-12-16T17:33:02;26.38;;;10.60;;
46339;SDS011;47273;49.274;8.708;2022-12-16T17:35:48;18.10;;;8.15;;
46339;SDS011;47273;49.274;8.708;2022-12-16T17:41:21;28.42;;;8.90;;
46339;SDS011;47273;49.274;8.708;2022-12-16T17:44:05;21.38;;;8.93;;
46339;SDS011;47273;49.274;8.708;2022-12-16T17:46:49;21.55;;;9.75;;
46339;SDS011;47273;49.274;8.708;2022-12-16T17:49:33;22.48;;;8.85;;
46339;SDS011;47273;49.274;8.708;2022-12-16T17:52:17;15.45;;;7.43;;
46339;SDS011;47273;49.274;8.708;2022-12-16T17:55:01;16.80;;;8.05;;
46339;SDS011;47273;49.274;8.708;2022-12-16T18:01:10;17.90;;;8.43;;
46339;SDS011;47273;49.274;8.708;2022-12-16T18:03:54;21.85;;;9.95;;
46339;SDS011;47273;49.274;8.708;2022-12-16T18:06:38;31.70;;;9.75;;
46339;SDS011;47273;49.274;8.708;2022-12-16T18:09:22;21.50;;;9.27;;
46339;SDS011;47273;49.274;8.708;2022-12-16T18:12:06;18.30;;;9.35;;
46339;SDS011;47273;49.274;8.708;2022-12-16T18:14:54;18.52;;;9.35;;
46339;SDS011;47273;49.274;8.708;2022-12-16T18:17:39;16.95;;;8.40;;
46339;SDS011;47273;49.274;8.708;2022-12-16T18:20:23;16.60;;;8.00;;
46339;SDS011;47273;49.274;8.708;2022-12-16T18:23:07;20.50;;;9.13;;
46339;SDS011;47273;49.274;8.708;2022-12-16T18:26:00;26.25;;;9.93;;
46339;SDS011;47273;49.274;8.708;2022-12-16T18:28:46;23.80;;;9.48;;
46339;SDS011;47273;49.274;8.708;2022-12-16T18:31:31;33.88;;;10.07;;
46339;SDS011;47273;49.274;8.708;2022-12-16T18:34:15;22.67;;;9.70;;
46339;SDS011;47273;49.274;8.708;2022-12-16T18:36:59;16.77;;;8.40;;
46339;SDS011;47273;49.274;8.708;2022-12-16T18:39:43;16.65;;;8.70;;
46339;SDS011;47273;49.274;8.708;2022-12-16T18:42:27;21.67;;;10.50;;
46339;SDS011;47273;49.274;8.708;2022-12-16T18:45:11;27.63;;;10.82;;
46339;SDS011;47273;49.274;8.708;2022-12-16T18:47:55;22.65;;;9.35;;
46339;SDS011;47273;49.274;8.708;2022-12-16T18:50:39;21.48;;;8.60;;
46339;SDS011;47273;49.274;8.708;2022-12-16T18:53:23;22.63;;;9.90;;
46339;SDS011;47273;49.274;8.708;2022-12-16T18:56:07;19.38;;;9.50;;
46339;SDS011;47273;49.274;8.708;2022-12-16T18:58:52;36.30;;;10.95;;
46339;SDS011;47273;49.274;8.708;2022-12-16T19:01:38;20.83;;;10.90;;
46339;SDS011;47273;49.274;8.708;2022-12-16T19:04:23;35.00;;;11.40;;
46339;SDS011;47273;49.274;8.708;2022-12-16T19:07:07;23.55;;;10.07;;
46339;SDS011;47273;49.274;8.708;2022-12-16T19:09:51;20.65;;;10.05;;
46339;SDS011;47273;49.274;8.708;2022-12-16T19:12:35;35.38;;;10.95;;
46339;SDS011;47273;49.274;8.708;2022-12-16T19:15:19;20.55;;;9.38;;
46339;SDS011;47273;49.274;8.708;2022-12-16T19:18:03;27.50;;;11.57;;
46339;SDS011;47273;49.274;8.708;2022-12-16T19:20:51;24.35;;;10.73;;
46339;SDS011;47273;49.274;8.708;2022-12-16T19:23:37;26.10;;;11.18;;
46339;SDS011;47273;49.274;8.708;2022-12-16T19:26:21;35.35;;;14.10;;
46339;SDS011;47273;49.274;8.708;2022-12-16T19:29:05;23.42;;;11.38;;
46339;SDS011;47273;49.274;8.708;2022-12-16T19:31:49;25.25;;;10.90;;
46339;SDS011;47273;49.274;8.708;2022-12-16T19:34:33;22.65;;;10.52;;
46339;SDS011;47273;49.274;8.708;2022-12-16T19:37:17;22.48;;;12.02;;
46339;SDS011;47273;49.274;8.708;2022-12-16T19:40:01;27.65;;;12.32;;
46339;SDS011;47273;49.274;8.708;2022-12-16T19:42:45;28.45;;;10.52;;
46339;SDS011;47273;49.274;8.708;2022-12-16T19:45:29;26.88;;;11.40;;
46339;SDS011;47273;49.274;8.708;2022-12-16T19:48:13;24.42;;;11.73;;
46339;SDS011;47273;49.274;8.708;2022-12-16T19:50:57;17.73;;;10.13;;
46339;SDS011;47273;49.274;8.708;2022-12-16T19:53:42;23.98;;;11.25;;
46339;SDS011;47273;49.274;8.708;2022-12-16T19:56:26;35.38;;;13.35;;
46339;SDS011;47273;49.274;8.708;2022-12-16T19:59:10;24.75;;;11.13;;
46339;SDS011;47273;49.274;8.708;2022-12-16T20:01:54;22.40;;;10.18;;
46339;SDS011;47273;49.274;8.708;2022-12-16T20:04:38;29.73;;;10.57;;
46339;SDS011;47273;49.274;8.708;2022-12-16T20:07:23;32.63;;;12.52;;
46339;SDS011;47273;49.274;8.708;2022-12-16T20:10:07;21.42;;;11.30;;
46339;SDS011;47273;49.274;8.708;2022-12-16T20:12:51;26.27;;;12.23;;
46339;SDS011;47273;49.274;8.708;2022-12-16T20:15:35;20.70;;;11.15;;
46339;SDS011;47273;49.274;8.708;2022-12-16T20:18:19;26.35;;;11.27;;
46339;SDS011;47273;49.274;8.708;2022-12-16T20:21:03;21.02;;;10.85;;
46339;SDS011;47273;49.274;8.708;2022-12-16T20:23:48;25.90;;;11.52;;
46339;SDS011;47273;49.274;8.708;2022-12-16T20:26:32;24.95;;;10.75;;
46339;SDS011;47273;49.274;8.708;2022-12-16T20:29:16;27.63;;;10.68;;
46339;SDS011;47273;49.274;8.708;2022-12-16T20:32:00;30.05;;;13.00;;
46339;SDS011;47273;49.274;8.708;2022-12-16T20:34:44;23.65;;;12.52;;
46339;SDS011;47273;49.274;8.708;2022-12-16T20:37:28;23.73;;;11.52;;
46339;SDS011;47273;49.274;8.708;2022-12-16T20:40:12;26.05;;;9.07;;
46339;SDS011;47273;49.274;8.708;2022-12-16T20:42:56;21.30;;;10.07;;
46339;SDS011;47273;49.274;8.708;2022-12-16T20:45:40;22.80;;;10.65;;
46339;SDS011;47273;49.274;8.708;2022-12-16T20:48:24;21.80;;;9.93;;
46339;SDS011;47273;49.274;8.708;2022-12-16T20:51:08;26.67;;;12.15;;
46339;SDS011;47273;49.274;8.708;2022-12-16T20:53:53;36.88;;;11.70;;
46339;SDS011;47273;49.274;8.708;2022-12-16T20:56:37;22.90;;;11.05;;
46339;SDS011;47273;49.274;8.708;2022-12-16T20:59:21;20.60;;;12.70;;
46339;SDS011;47273;49.274;8.708;2022-12-16T21:02:07;32.15;;;12.80;;
46339;SDS011;47273;49.274;8.708;2022-12-16T21:04:55;27.33;;;12.07;;
46339;SDS011;47273;49.274;8.708;2022-12-16T21:07:39;22.63;;;10.52;;
46339;SDS011;47273;49.274;8.708;2022-12-16T21:10:23;24.00;;;10.80;;
46339;SDS011;47273;49.274;8.708;2022-12-16T21:13:07;22.13;;;9.50;;
46339;SDS011;47273;49.274;8.708;2022-12-16T21:15:55;19.08;;;10.60;;
46339;SDS011;47273;49.274;8.708;2022-12-16T21:18:40;31.17;;;13.05;;
46339;SDS011;47273;49.274;8.708;2022-12-16T21:21:24;23.60;;;9.23;;
46339;SDS011;47273;49.274;8.708;2022-12-16T21:24:08;24.15;;;12.65;;
46339;SDS011;47273;49.274;8.708;2022-12-16T21:26:52;20.80;;;10.90;;
46339;SDS011;47273;49.274;8.708;2022-12-16T21:29:36;27.00;;;12.48;;
